sensor_id;sensor_type;location;lat;lon;timestamp;pressure;altitude;pressure_sealevel;temperature;humidity
78431;BME280;67727;50.236;22.452;2023-11-19T00:00:08;100328.08;;;1.47;84.86
78431;BME280;67727;50.236;22.452;2023-11-19T00:02:58;100322.00;;;1.49;84.80
78431;BME280;67727;50.236;22.452;2023-11-19T00:05:25;100314.52;;;1.51;84.94
78431;BME280;67727;50.236;22.452;2023-11-19T00:07:54;100310.02;;;1.55;84.91
78431;BME280;67727;50.236;22.452;2023-11-19T00:10:21;100307.52;;;1.59;84.87
78431;BME280;67727;50.236;22.452;2023-11-19T00:12:48;100301.40;;;1.62;84.97
78431;BME280;67727;50.236;22.452;2023-11-19T00:15:17;100304.36;;;1.64;84.45
78431;BME280;67727;50.236;22.452;2023-11-19T00:17:45;100308.41;;;1.67;84.55
78431;BME280;67727;50.236;22.452;2023-11-19T00:20:14;100309.04;;;1.68;84.57
78431;BME280;67727;50.236;22.452;2023-11-19T00:22:41;100306.47;;;1.69;84.40
78431;BME280;67727;50.236;22.452;2023-11-19T00:25:09;100304.93;;;1.71;84.62
78431;BME280;67727;50.236;22.452;2023-11-19T00:27:36;100307.27;;;1.73;84.40
78431;BME280;67727;50.236;22.452;2023-11-19T00:30:07;100306.27;;;1.77;84.49
78431;BME280;67727;50.236;22.452;2023-11-19T00:32:36;100299.03;;;1.81;84.49
78431;BME280;67727;50.236;22.452;2023-11-19T00:35:06;100292.20;;;1.84;84.30
78431;BME280;67727;50.236;22.452;2023-11-19T00:37:33;100277.75;;;1.86;84.27
78431;BME280;67727;50.236;22.452;2023-11-19T00:40:00;100278.17;;;1.88;84.15
78431;BME280;67727;50.236;22.452;2023-11-19T00:42:27;100278.60;;;1.87;83.91
78431;BME280;67727;50.236;22.452;2023-11-19T00:44:54;100285.52;;;1.85;83.93
78431;BME280;67727;50.236;22.452;2023-11-19T00:47:21;100289.30;;;1.83;84.29
78431;BME280;67727;50.236;22.452;2023-11-19T00:49:48;100282.88;;;1.78;83.97
78431;BME280;67727;50.236;22.452;2023-11-19T00:52:19;100284.07;;;1.76;84.05
78431;BME280;67727;50.236;22.452;2023-11-19T00:54:45;100282.49;;;1.76;84.03
78431;BME280;67727;50.236;22.452;2023-11-19T00:57:12;100285.77;;;1.76;84.37
78431;BME280;67727;50.236;22.452;2023-11-19T00:59:42;100281.42;;;1.76;84.25
78431;BME280;67727;50.236;22.452;2023-11-19T01:02:09;100280.42;;;1.78;84.42
78431;BME280;67727;50.236;22.452;2023-11-19T01:04:36;100275.95;;;1.77;84.25
78431;BME280;67727;50.236;22.452;2023-11-19T01:07:04;100276.05;;;1.74;84.38
78431;BME280;67727;50.236;22.452;2023-11-19T01:09:31;100272.88;;;1.72;84.26
78431;BME280;67727;50.236;22.452;2023-11-19T01:12:02;100273.20;;;1.69;84.36
78431;BME280;67727;50.236;22.452;2023-11-19T01:14:29;100273.80;;;1.66;84.22
78431;BME280;67727;50.236;22.452;2023-11-19T01:16:57;100269.10;;;1.63;84.43
78431;BME280;67727;50.236;22.452;2023-11-19T01:19:24;100265.44;;;1.61;84.43
78431;BME280;67727;50.236;22.452;2023-11-19T01:21:51;100257.91;;;1.61;84.53
78431;BME280;67727;50.236;22.452;2023-11-19T01:24:18;100254.39;;;1.62;84.61
78431;BME280;67727;50.236;22.452;2023-11-19T01:26:45;100247.52;;;1.62;84.41
78431;BME280;67727;50.236;22.452;2023-11-19T01:29:13;100242.45;;;1.63;84.59
78431;BME280;67727;50.236;22.452;2023-11-19T01:31:45;100235.36;;;1.65;85.03
78431;BME280;67727;50.236;22.452;2023-11-19T01:34:12;100234.79;;;1.68;85.03
78431;BME280;67727;50.236;22.452;2023-11-19T01:36:39;100233.13;;;1.70;84.50
78431;BME280;67727;50.236;22.452;2023-11-19T01:39:06;100234.13;;;1.70;84.82
78431;BME280;67727;50.236;22.452;2023-11-19T01:41:36;100230.84;;;1.70;84.52
78431;BME280;67727;50.236;22.452;2023-11-19T01:44:03;100228.92;;;1.70;84.36
78431;BME280;67727;50.236;22.452;2023-11-19T01:46:32;100230.20;;;1.69;84.55
78431;BME280;67727;50.236;22.452;2023-11-19T01:48:59;100225.19;;;1.68;84.27
78431;BME280;67727;50.236;22.452;2023-11-19T01:51:27;100218.16;;;1.69;84.92
78431;BME280;67727;50.236;22.452;2023-11-19T01:53:55;100216.38;;;1.72;84.65
78431;BME280;67727;50.236;22.452;2023-11-19T01:56:24;100208.97;;;1.76;84.64
78431;BME280;67727;50.236;22.452;2023-11-19T01:58:53;100205.42;;;1.80;84.47
78431;BME280;67727;50.236;22.452;2023-11-19T02:01:21;100204.58;;;1.82;84.26
78431;BME280;67727;50.236;22.452;2023-11-19T02:03:48;100198.23;;;1.80;84.38
78431;BME280;67727;50.236;22.452;2023-11-19T02:06:15;100191.98;;;1.79;84.36
78431;BME280;67727;50.236;22.452;2023-11-19T02:08:42;100190.68;;;1.78;84.56
78431;BME280;67727;50.236;22.452;2023-11-19T02:11:10;100186.59;;;1.77;84.58
78431;BME280;67727;50.236;22.452;2023-11-19T02:13:38;100188.77;;;1.76;84.18
78431;BME280;67727;50.236;22.452;2023-11-19T02:16:06;100190.91;;;1.75;84.57
78431;BME280;67727;50.236;22.452;2023-11-19T02:18:35;100190.70;;;1.78;84.52
78431;BME280;67727;50.236;22.452;2023-11-19T02:21:01;100192.62;;;1.81;84.50
78431;BME280;67727;50.236;22.452;2023-11-19T02:23:30;100181.27;;;1.83;84.30
78431;BME280;67727;50.236;22.452;2023-11-19T02:26:25;100181.85;;;1.85;84.24
78431;BME280;67727;50.236;22.452;2023-11-19T02:28:55;100180.83;;;1.87;84.22
78431;BME280;67727;50.236;22.452;2023-11-19T02:31:22;100176.50;;;1.86;84.28
78431;BME280;67727;50.236;22.452;2023-11-19T02:33:50;100178.95;;;1.86;84.33
78431;BME280;67727;50.236;22.452;2023-11-19T02:36:16;100183.83;;;1.87;84.27
78431;BME280;67727;50.236;22.452;2023-11-19T02:38:43;100184.52;;;1.87;84.05
78431;BME280;67727;50.236;22.452;2023-11-19T02:41:10;100182.27;;;1.86;84.30
78431;BME280;67727;50.236;22.452;2023-11-19T02:43:37;100175.29;;;1.86;84.17
78431;BME280;67727;50.236;22.452;2023-11-19T02:46:05;100167.48;;;1.88;84.34
78431;BME280;67727;50.236;22.452;2023-11-19T02:48:35;100162.21;;;1.92;84.26
78431;BME280;67727;50.236;22.452;2023-11-19T02:51:03;100158.41;;;1.94;84.16
78431;BME280;67727;50.236;22.452;2023-11-19T02:53:30;100152.13;;;1.97;84.28
78431;BME280;67727;50.236;22.452;2023-11-19T02:55:58;100144.85;;;1.98;83.94
78431;BME280;67727;50.236;22.452;2023-11-19T02:58:38;100144.31;;;1.99;83.80
78431;BME280;67727;50.236;22.452;2023-11-19T03:01:05;100138.06;;;1.98;83.78
78431;BME280;67727;50.236;22.452;2023-11-19T03:03:50;100129.38;;;1.95;83.45
78431;BME280;67727;50.236;22.452;2023-11-19T03:06:23;100124.08;;;1.91;83.61
78431;BME280;67727;50.236;22.452;2023-11-19T03:08:50;100120.64;;;1.88;83.54
78431;BME280;67727;50.236;22.452;2023-11-19T03:11:17;100113.98;;;1.86;83.53
78431;BME280;67727;50.236;22.452;2023-11-19T03:13:44;100114.98;;;1.87;83.48
78431;BME280;67727;50.236;22.452;2023-11-19T03:16:12;100117.84;;;1.88;83.64
78431;BME280;67727;50.236;22.452;2023-11-19T03:18:39;100123.95;;;1.90;83.68
78431;BME280;67727;50.236;22.452;2023-11-19T03:21:06;100122.60;;;1.93;83.81
78431;BME280;67727;50.236;22.452;2023-11-19T03:23:35;100115.78;;;1.93;83.54
78431;BME280;67727;50.236;22.452;2023-11-19T03:26:02;100111.45;;;1.93;83.54
78431;BME280;67727;50.236;22.452;2023-11-19T03:28:32;100116.21;;;1.92;83.43
78431;BME280;67727;50.236;22.452;2023-11-19T03:30:59;100112.41;;;1.91;83.44
78431;BME280;67727;50.236;22.452;2023-11-19T03:33:26;100108.30;;;1.90;83.82
78431;BME280;67727;50.236;22.452;2023-11-19T03:35:56;100101.47;;;1.88;83.53
78431;BME280;67727;50.236;22.452;2023-11-19T03:38:24;100106.65;;;1.86;83.59
78431;BME280;67727;50.236;22.452;2023-11-19T03:40:51;100106.19;;;1.85;83.14
78431;BME280;67727;50.236;22.452;2023-11-19T03:43:18;100104.77;;;1.86;83.39
78431;BME280;67727;50.236;22.452;2023-11-19T03:45:48;100102.64;;;1.86;83.37
78431;BME280;67727;50.236;22.452;2023-11-19T03:48:15;100094.52;;;1.88;83.28
78431;BME280;67727;50.236;22.452;2023-11-19T03:50:42;100089.60;;;1.91;83.60
78431;BME280;67727;50.236;22.452;2023-11-19T03:53:10;100084.20;;;1.96;83.37
78431;BME280;67727;50.236;22.452;2023-11-19T03:55:37;100084.80;;;2.00;83.20
78431;BME280;67727;50.236;22.452;2023-11-19T03:58:04;100077.72;;;2.01;83.34
78431;BME280;67727;50.236;22.452;2023-11-19T04:00:32;100069.98;;;2.02;83.06
78431;BME280;67727;50.236;22.452;2023-11-19T04:02:59;100070.77;;;2.01;82.83
78431;BME280;67727;50.236;22.452;2023-11-19T04:05:27;100068.79;;;1.97;82.75
78431;BME280;67727;50.236;22.452;2023-11-19T04:07:54;100066.21;;;1.94;83.17
78431;BME280;67727;50.236;22.452;2023-11-19T04:10:21;100068.00;;;1.91;83.10
78431;BME280;67727;50.236;22.452;2023-11-19T04:12:49;100068.75;;;1.90;83.05
78431;BME280;67727;50.236;22.452;2023-11-19T04:15:17;100071.08;;;1.89;82.92
78431;BME280;67727;50.236;22.452;2023-11-19T04:17:44;100063.09;;;1.88;83.21
78431;BME280;67727;50.236;22.452;2023-11-19T04:20:11;100051.07;;;1.88;82.89
78431;BME280;67727;50.236;22.452;2023-11-19T04:22:40;100050.08;;;1.90;83.02
78431;BME280;67727;50.236;22.452;2023-11-19T04:25:07;100046.52;;;1.91;83.26
78431;BME280;67727;50.236;22.452;2023-11-19T04:27:34;100044.83;;;1.94;83.09
78431;BME280;67727;50.236;22.452;2023-11-19T04:30:01;100046.61;;;1.93;83.03
78431;BME280;67727;50.236;22.452;2023-11-19T04:32:30;100051.34;;;1.90;82.85
78431;BME280;67727;50.236;22.452;2023-11-19T04:34:57;100049.63;;;1.87;83.07
78431;BME280;67727;50.236;22.452;2023-11-19T04:37:23;100052.42;;;1.84;83.16
78431;BME280;67727;50.236;22.452;2023-11-19T04:39:51;100042.09;;;1.83;83.21
78431;BME280;67727;50.236;22.452;2023-11-19T04:42:18;100042.70;;;1.84;83.41
78431;BME280;67727;50.236;22.452;2023-11-19T04:44:44;100045.98;;;1.85;83.50
78431;BME280;67727;50.236;22.452;2023-11-19T04:47:11;100040.11;;;1.86;83.36
78431;BME280;67727;50.236;22.452;2023-11-19T04:49:41;100032.80;;;1.88;83.61
78431;BME280;67727;50.236;22.452;2023-11-19T04:52:11;100037.06;;;1.93;83.27
78431;BME280;67727;50.236;22.452;2023-11-19T04:54:42;100030.90;;;1.93;83.36
78431;BME280;67727;50.236;22.452;2023-11-19T04:57:10;100034.09;;;1.93;83.36
78431;BME280;67727;50.236;22.452;2023-11-19T04:59:40;100028.70;;;1.90;83.24
78431;BME280;67727;50.236;22.452;2023-11-19T05:02:08;100031.33;;;1.89;83.29
78431;BME280;67727;50.236;22.452;2023-11-19T05:04:35;100021.80;;;1.89;83.41
78431;BME280;67727;50.236;22.452;2023-11-19T05:07:02;100017.64;;;1.88;83.42
78431;BME280;67727;50.236;22.452;2023-11-19T05:09:30;100012.94;;;1.88;83.38
78431;BME280;67727;50.236;22.452;2023-11-19T05:11:57;100009.27;;;1.88;83.58
78431;BME280;67727;50.236;22.452;2023-11-19T05:14:24;100007.83;;;1.89;83.43
78431;BME280;67727;50.236;22.452;2023-11-19T05:16:51;100008.92;;;1.91;83.22
78431;BME280;67727;50.236;22.452;2023-11-19T05:19:17;100008.73;;;1.94;83.19
78431;BME280;67727;50.236;22.452;2023-11-19T05:21:44;100003.65;;;1.94;83.35
78431;BME280;67727;50.236;22.452;2023-11-19T05:24:11;99999.87;;;1.94;83.28
78431;BME280;67727;50.236;22.452;2023-11-19T05:26:38;99984.14;;;1.92;83.10
78431;BME280;67727;50.236;22.452;2023-11-19T05:29:05;99971.77;;;1.92;83.04
78431;BME280;67727;50.236;22.452;2023-11-19T05:31:32;99966.70;;;1.89;83.07
78431;BME280;67727;50.236;22.452;2023-11-19T05:33:59;99964.32;;;1.86;83.16
78431;BME280;67727;50.236;22.452;2023-11-19T05:36:25;99959.58;;;1.84;83.41
78431;BME280;67727;50.236;22.452;2023-11-19T05:38:54;99958.96;;;1.83;83.31
78431;BME280;67727;50.236;22.452;2023-11-19T05:41:21;99959.61;;;1.79;83.08
78431;BME280;67727;50.236;22.452;2023-11-19T05:43:48;99960.77;;;1.78;83.53
78431;BME280;67727;50.236;22.452;2023-11-19T05:46:14;99962.95;;;1.79;83.76
78431;BME280;67727;50.236;22.452;2023-11-19T05:48:41;99959.39;;;1.80;83.26
78431;BME280;67727;50.236;22.452;2023-11-19T05:51:08;99958.44;;;1.81;83.59
78431;BME280;67727;50.236;22.452;2023-11-19T05:53:35;99960.21;;;1.83;83.41
78431;BME280;67727;50.236;22.452;2023-11-19T05:56:02;99954.69;;;1.84;83.39
78431;BME280;67727;50.236;22.452;2023-11-19T05:58:30;99949.77;;;1.85;83.60
78431;BME280;67727;50.236;22.452;2023-11-19T06:00:59;99947.27;;;1.83;83.98
78431;BME280;67727;50.236;22.452;2023-11-19T06:03:27;99947.84;;;1.78;83.51
78431;BME280;67727;50.236;22.452;2023-11-19T06:05:54;99946.90;;;1.74;83.88
78431;BME280;67727;50.236;22.452;2023-11-19T06:08:21;99948.04;;;1.73;83.82
78431;BME280;67727;50.236;22.452;2023-11-19T06:10:48;99947.35;;;1.73;83.84
78431;BME280;67727;50.236;22.452;2023-11-19T06:13:17;99947.70;;;1.73;83.83
78431;BME280;67727;50.236;22.452;2023-11-19T06:15:44;99937.10;;;1.75;83.87
78431;BME280;67727;50.236;22.452;2023-11-19T06:18:11;99934.18;;;1.72;83.89
78431;BME280;67727;50.236;22.452;2023-11-19T06:20:38;99931.53;;;1.68;84.05
78431;BME280;67727;50.236;22.452;2023-11-19T06:23:05;99926.70;;;1.65;84.29
78431;BME280;67727;50.236;22.452;2023-11-19T06:25:33;99919.20;;;1.65;83.98
78431;BME280;67727;50.236;22.452;2023-11-19T06:28:02;99912.52;;;1.63;84.27
78431;BME280;67727;50.236;22.452;2023-11-19T06:30:29;99909.66;;;1.62;84.19
78431;BME280;67727;50.236;22.452;2023-11-19T06:32:58;99912.36;;;1.61;84.29
78431;BME280;67727;50.236;22.452;2023-11-19T06:35:25;99912.42;;;1.60;84.04
78431;BME280;67727;50.236;22.452;2023-11-19T06:37:51;99922.70;;;1.63;84.20
78431;BME280;67727;50.236;22.452;2023-11-19T06:40:18;99923.19;;;1.68;84.62
78431;BME280;67727;50.236;22.452;2023-11-19T06:42:45;99922.33;;;1.74;84.86
78431;BME280;67727;50.236;22.452;2023-11-19T06:45:12;99916.18;;;1.80;84.50
78431;BME280;67727;50.236;22.452;2023-11-19T06:47:39;99916.23;;;1.86;84.22
78431;BME280;67727;50.236;22.452;2023-11-19T06:50:06;99912.50;;;1.92;84.10
78431;BME280;67727;50.236;22.452;2023-11-19T06:52:33;99906.34;;;1.97;83.84
78431;BME280;67727;50.236;22.452;2023-11-19T06:55:00;99909.84;;;2.02;83.98
78431;BME280;67727;50.236;22.452;2023-11-19T06:57:27;99914.28;;;2.05;84.00
78431;BME280;67727;50.236;22.452;2023-11-19T06:59:56;99906.20;;;2.06;83.55
78431;BME280;67727;50.236;22.452;2023-11-19T07:02:24;99895.39;;;2.04;83.49
78431;BME280;67727;50.236;22.452;2023-11-19T07:04:51;99900.10;;;2.02;83.58
78431;BME280;67727;50.236;22.452;2023-11-19T07:07:18;99902.67;;;2.00;83.66
78431;BME280;67727;50.236;22.452;2023-11-19T07:09:44;99905.99;;;2.00;83.69
78431;BME280;67727;50.236;22.452;2023-11-19T07:12:11;99900.97;;;2.00;83.62
78431;BME280;67727;50.236;22.452;2023-11-19T07:14:40;99909.48;;;2.02;83.66
78431;BME280;67727;50.236;22.452;2023-11-19T07:17:08;99913.08;;;2.05;84.03
78431;BME280;67727;50.236;22.452;2023-11-19T07:19:38;99911.33;;;2.09;83.83
78431;BME280;67727;50.236;22.452;2023-11-19T07:22:05;99911.98;;;2.12;83.45
78431;BME280;67727;50.236;22.452;2023-11-19T07:24:33;99915.70;;;2.14;83.23
78431;BME280;67727;50.236;22.452;2023-11-19T07:27:00;99917.80;;;2.16;83.33
78431;BME280;67727;50.236;22.452;2023-11-19T07:29:27;99922.47;;;2.19;83.79
78431;BME280;67727;50.236;22.452;2023-11-19T07:31:53;99922.23;;;2.20;83.67
78431;BME280;67727;50.236;22.452;2023-11-19T07:34:20;99920.92;;;2.21;83.45
78431;BME280;67727;50.236;22.452;2023-11-19T07:36:47;99920.80;;;2.22;83.32
78431;BME280;67727;50.236;22.452;2023-11-19T07:39:14;99921.77;;;2.23;83.22
78431;BME280;67727;50.236;22.452;2023-11-19T07:41:41;99923.23;;;2.25;83.22
78431;BME280;67727;50.236;22.452;2023-11-19T07:44:08;99918.10;;;2.26;82.88
78431;BME280;67727;50.236;22.452;2023-11-19T07:46:35;99922.41;;;2.28;82.79
78431;BME280;67727;50.236;22.452;2023-11-19T07:49:02;99931.36;;;2.32;82.91
78431;BME280;67727;50.236;22.452;2023-11-19T07:51:29;99935.13;;;2.35;82.86
78431;BME280;67727;50.236;22.452;2023-11-19T07:53:56;99938.05;;;2.38;82.77
78431;BME280;67727;50.236;22.452;2023-11-19T07:56:23;99931.49;;;2.40;82.85
78431;BME280;67727;50.236;22.452;2023-11-19T07:58:49;99925.88;;;2.38;82.48
78431;BME280;67727;50.236;22.452;2023-11-19T08:01:16;99922.42;;;2.35;82.87
78431;BME280;67727;50.236;22.452;2023-11-19T08:03:43;99914.56;;;2.33;82.74
78431;BME280;67727;50.236;22.452;2023-11-19T08:06:11;99913.13;;;2.31;82.39
78431;BME280;67727;50.236;22.452;2023-11-19T08:08:38;99912.88;;;2.30;82.46
78431;BME280;67727;50.236;22.452;2023-11-19T08:11:05;99911.08;;;2.28;82.16
78431;BME280;67727;50.236;22.452;2023-11-19T08:13:33;99908.32;;;2.28;82.05
78431;BME280;67727;50.236;22.452;2023-11-19T08:15:59;99908.25;;;2.29;82.31
78431;BME280;67727;50.236;22.452;2023-11-19T08:18:26;99905.58;;;2.32;82.21
78431;BME280;67727;50.236;22.452;2023-11-19T08:20:53;99897.91;;;2.36;82.06
78431;BME280;67727;50.236;22.452;2023-11-19T08:23:20;99889.42;;;2.40;82.06
78431;BME280;67727;50.236;22.452;2023-11-19T08:25:47;99869.75;;;2.44;82.14
78431;BME280;67727;50.236;22.452;2023-11-19T08:28:14;99862.77;;;2.46;82.07
78431;BME280;67727;50.236;22.452;2023-11-19T08:30:41;99861.86;;;2.47;81.72
78431;BME280;67727;50.236;22.452;2023-11-19T08:33:07;99859.52;;;2.48;81.72
78431;BME280;67727;50.236;22.452;2023-11-19T08:35:34;99855.64;;;2.49;81.64
78431;BME280;67727;50.236;22.452;2023-11-19T08:38:01;99855.88;;;2.48;81.58
78431;BME280;67727;50.236;22.452;2023-11-19T08:40:28;99853.13;;;2.47;81.45
78431;BME280;67727;50.236;22.452;2023-11-19T08:42:56;99843.06;;;2.51;81.81
78431;BME280;67727;50.236;22.452;2023-11-19T08:45:23;99829.95;;;2.56;82.01
78431;BME280;67727;50.236;22.452;2023-11-19T08:47:50;99822.31;;;2.60;81.26
78431;BME280;67727;50.236;22.452;2023-11-19T08:50:17;99814.15;;;2.59;80.94
78431;BME280;67727;50.236;22.452;2023-11-19T08:52:43;99811.54;;;2.59;81.13
78431;BME280;67727;50.236;22.452;2023-11-19T08:55:10;99814.24;;;2.58;80.91
78431;BME280;67727;50.236;22.452;2023-11-19T08:57:40;99808.98;;;2.58;81.29
78431;BME280;67727;50.236;22.452;2023-11-19T09:00:07;99809.26;;;2.60;81.65
78431;BME280;67727;50.236;22.452;2023-11-19T09:02:37;99800.50;;;2.60;81.43
78431;BME280;67727;50.236;22.452;2023-11-19T09:05:05;99796.33;;;2.60;81.53
78431;BME280;67727;50.236;22.452;2023-11-19T09:07:33;99789.13;;;2.58;81.19
78431;BME280;67727;50.236;22.452;2023-11-19T09:10:00;99782.66;;;2.58;81.21
78431;BME280;67727;50.236;22.452;2023-11-19T09:12:27;99781.75;;;2.56;80.96
78431;BME280;67727;50.236;22.452;2023-11-19T09:14:54;99774.96;;;2.54;80.74
78431;BME280;67727;50.236;22.452;2023-11-19T09:17:21;99767.91;;;2.51;80.63
78431;BME280;67727;50.236;22.452;2023-11-19T09:19:48;99767.41;;;2.48;80.75
78431;BME280;67727;50.236;22.452;2023-11-19T09:22:15;99768.60;;;2.49;81.06
78431;BME280;67727;50.236;22.452;2023-11-19T09:24:41;99759.41;;;2.52;81.26
78431;BME280;67727;50.236;22.452;2023-11-19T09:27:10;99756.13;;;2.54;80.61
78431;BME280;67727;50.236;22.452;2023-11-19T09:29:38;99752.22;;;2.55;81.15
78431;BME280;67727;50.236;22.452;2023-11-19T09:32:05;99752.73;;;2.57;81.23
78431;BME280;67727;50.236;22.452;2023-11-19T09:34:33;99750.90;;;2.56;80.64
78431;BME280;67727;50.236;22.452;2023-11-19T09:36:59;99745.43;;;2.53;80.68
78431;BME280;67727;50.236;22.452;2023-11-19T09:39:27;99742.10;;;2.53;81.00
78431;BME280;67727;50.236;22.452;2023-11-19T09:41:54;99736.85;;;2.51;80.61
78431;BME280;67727;50.236;22.452;2023-11-19T09:44:21;99735.30;;;2.51;80.76
78431;BME280;67727;50.236;22.452;2023-11-19T09:46:48;99733.92;;;2.48;80.51
78431;BME280;67727;50.236;22.452;2023-11-19T09:49:20;99735.55;;;2.48;80.53
78431;BME280;67727;50.236;22.452;2023-11-19T09:51:47;99733.23;;;2.48;80.61
78431;BME280;67727;50.236;22.452;2023-11-19T09:54:14;99729.12;;;2.52;80.91
78431;BME280;67727;50.236;22.452;2023-11-19T09:56:41;99724.54;;;2.56;80.74
78431;BME280;67727;50.236;22.452;2023-11-19T09:59:09;99719.83;;;2.59;80.60
78431;BME280;67727;50.236;22.452;2023-11-19T10:01:39;99713.70;;;2.63;80.29
78431;BME280;67727;50.236;22.452;2023-11-19T10:04:06;99715.31;;;2.69;80.67
78431;BME280;67727;50.236;22.452;2023-11-19T10:06:33;99709.52;;;2.74;80.51
78431;BME280;67727;50.236;22.452;2023-11-19T10:09:00;99708.34;;;2.77;80.67
78431;BME280;67727;50.236;22.452;2023-11-19T10:11:27;99709.38;;;2.81;80.65
78431;BME280;67727;50.236;22.452;2023-11-19T10:13:54;99706.09;;;2.83;80.82
78431;BME280;67727;50.236;22.452;2023-11-19T10:16:28;99702.55;;;2.84;80.65
78431;BME280;67727;50.236;22.452;2023-11-19T10:18:55;99701.87;;;2.84;80.56
78431;BME280;67727;50.236;22.452;2023-11-19T10:21:23;99688.30;;;2.81;80.13
78431;BME280;67727;50.236;22.452;2023-11-19T10:23:57;99683.58;;;2.79;80.21
78431;BME280;67727;50.236;22.452;2023-11-19T10:26:26;99681.66;;;2.79;80.19
78431;BME280;67727;50.236;22.452;2023-11-19T10:28:55;99680.30;;;2.79;79.73
78431;BME280;67727;50.236;22.452;2023-11-19T10:31:22;99675.48;;;2.80;80.04
78431;BME280;67727;50.236;22.452;2023-11-19T10:33:53;99668.77;;;2.81;80.18
78431;BME280;67727;50.236;22.452;2023-11-19T10:36:20;99661.35;;;2.84;80.16
78431;BME280;67727;50.236;22.452;2023-11-19T10:38:54;99659.61;;;2.86;80.28
78431;BME280;67727;50.236;22.452;2023-11-19T10:41:29;99658.53;;;2.85;79.97
78431;BME280;67727;50.236;22.452;2023-11-19T10:43:57;99651.64;;;2.83;80.02
78431;BME280;67727;50.236;22.452;2023-11-19T10:46:37;99649.82;;;2.82;80.28
78431;BME280;67727;50.236;22.452;2023-11-19T10:49:06;99643.48;;;2.81;80.04
78431;BME280;67727;50.236;22.452;2023-11-19T10:51:33;99635.37;;;2.80;80.32
78431;BME280;67727;50.236;22.452;2023-11-19T10:54:04;99627.82;;;2.78;80.16
78431;BME280;67727;50.236;22.452;2023-11-19T10:56:33;99627.24;;;2.79;80.07
78431;BME280;67727;50.236;22.452;2023-11-19T10:59:01;99622.64;;;2.80;80.44
78431;BME280;67727;50.236;22.452;2023-11-19T11:01:45;99615.29;;;2.82;80.12
78431;BME280;67727;50.236;22.452;2023-11-19T11:04:19;99612.50;;;2.84;80.51
78431;BME280;67727;50.236;22.452;2023-11-19T11:06:49;99613.24;;;2.88;80.53
78431;BME280;67727;50.236;22.452;2023-11-19T11:09:17;99611.25;;;2.91;80.44
78431;BME280;67727;50.236;22.452;2023-11-19T11:11:47;99600.10;;;2.92;80.49
78431;BME280;67727;50.236;22.452;2023-11-19T11:14:16;99589.14;;;2.94;80.45
78431;BME280;67727;50.236;22.452;2023-11-19T11:16:46;99579.55;;;2.96;80.52
78431;BME280;67727;50.236;22.452;2023-11-19T11:19:17;99575.98;;;2.97;80.52
78431;BME280;67727;50.236;22.452;2023-11-19T11:21:50;99568.31;;;2.96;80.61
78431;BME280;67727;50.236;22.452;2023-11-19T11:25:09;99563.25;;;2.96;80.21
78431;BME280;67727;50.236;22.452;2023-11-19T11:28:08;99553.48;;;2.99;80.33
78431;BME280;67727;50.236;22.452;2023-11-19T11:31:19;99554.73;;;3.05;80.16
78431;BME280;67727;50.236;22.452;2023-11-19T11:34:08;99555.88;;;3.10;80.29
78431;BME280;67727;50.236;22.452;2023-11-19T11:39:29;99549.29;;;3.13;80.06
78431;BME280;67727;50.236;22.452;2023-11-19T11:45:08;99533.10;;;3.13;80.12
78431;BME280;67727;50.236;22.452;2023-11-19T11:48:19;99526.55;;;3.10;80.15
78431;BME280;67727;50.236;22.452;2023-11-19T11:50:26;99520.28;;;3.03;79.87
78431;BME280;67727;50.236;22.452;2023-11-19T11:55:37;99512.96;;;2.95;79.84
78431;BME280;67727;50.236;22.452;2023-11-19T11:58:19;99514.63;;;2.92;79.71
78431;BME280;67727;50.236;22.452;2023-11-19T12:00:48;99512.06;;;2.91;80.00
78431;BME280;67727;50.236;22.452;2023-11-19T12:03:20;99498.31;;;2.93;79.95
78431;BME280;67727;50.236;22.452;2023-11-19T12:05:48;99487.07;;;2.96;80.08
78431;BME280;67727;50.236;22.452;2023-11-19T12:08:19;99482.81;;;2.98;80.19
78431;BME280;67727;50.236;22.452;2023-11-19T12:10:48;99479.70;;;3.02;80.03
78431;BME280;67727;50.236;22.452;2023-11-19T12:13:16;99476.58;;;3.04;79.92
78431;BME280;67727;50.236;22.452;2023-11-19T12:18:28;99464.27;;;3.11;79.98
78431;BME280;67727;50.236;22.452;2023-11-19T12:20:56;99458.31;;;3.15;80.02
78431;BME280;67727;50.236;22.452;2023-11-19T12:23:23;99452.60;;;3.19;80.18
78431;BME280;67727;50.236;22.452;2023-11-19T12:25:50;99449.08;;;3.23;80.17
78431;BME280;67727;50.236;22.452;2023-11-19T12:28:17;99441.08;;;3.26;79.89
78431;BME280;67727;50.236;22.452;2023-11-19T12:30:44;99436.75;;;3.30;79.77
78431;BME280;67727;50.236;22.452;2023-11-19T12:33:12;99429.21;;;3.32;79.58
78431;BME280;67727;50.236;22.452;2023-11-19T12:35:40;99431.52;;;3.36;79.50
78431;BME280;67727;50.236;22.452;2023-11-19T12:38:07;99425.85;;;3.39;79.35
78431;BME280;67727;50.236;22.452;2023-11-19T12:40:34;99419.96;;;3.42;79.49
78431;BME280;67727;50.236;22.452;2023-11-19T12:43:01;99407.14;;;3.44;79.32
78431;BME280;67727;50.236;22.452;2023-11-19T12:45:37;99399.20;;;3.47;79.17
78431;BME280;67727;50.236;22.452;2023-11-19T12:48:07;99393.33;;;3.47;78.83
78431;BME280;67727;50.236;22.452;2023-11-19T12:50:56;99395.04;;;3.43;78.80
78431;BME280;67727;50.236;22.452;2023-11-19T12:53:26;99394.19;;;3.39;78.94
78431;BME280;67727;50.236;22.452;2023-11-19T12:55:53;99394.95;;;3.36;79.20
78431;BME280;67727;50.236;22.452;2023-11-19T12:58:31;99386.10;;;3.34;79.24
78431;BME280;67727;50.236;22.452;2023-11-19T13:01:02;99388.34;;;3.32;79.27
78431;BME280;67727;50.236;22.452;2023-11-19T13:03:35;99384.31;;;3.33;79.18
78431;BME280;67727;50.236;22.452;2023-11-19T13:08:41;99383.57;;;3.35;79.11
78431;BME280;67727;50.236;22.452;2023-11-19T13:11:08;99382.58;;;3.36;79.17
78431;BME280;67727;50.236;22.452;2023-11-19T13:14:00;99377.50;;;3.36;78.71
78431;BME280;67727;50.236;22.452;2023-11-19T13:16:28;99376.27;;;3.38;79.06